• Join FlightAware (Why Join?)
  • Login
  • US Flag 
05:22PM EST


 

Airport Tracker/Info


-or-


 

Live Flight TrackerFlight Track Log ✈ AEA76 ✈ 24-Aug-2013 ✈ SPIM / LIM - LEMD / MAD

Flight Track Log - Related Links

Times and Time Zones

All times are in EDT time to prevent confusion due to time zone crossing. See the AEA76 flight status page for this flight to view local times or setup timezone preferences in your user account.

Time Position Orientation Groundspeed Altitude Reporting Facility
EDT Latitude Longitude Course Direction KTS MPH feet Rate Location/Type
11:28AM -12.0480 -77.1020 164° South 177 204 1,100  Level FlightAware
11:28AM -12.0530 -77.1010 169° South 178 205 1,400 1,980 Climbing FlightAware
11:29AM -12.0720 -77.1080 200° South 177 204 2,100 1,860 Climbing FlightAware
11:29AM -12.0800 -77.1120 206° Southwest 174 200 2,500 1,260 Climbing FlightAware
11:29AM -12.0950 -77.1180 201° Southwest 185 213 2,800 1,080 Climbing FlightAware
11:30AM -12.1160 -77.1260 200° South 203 234 3,300 900 Climbing FlightAware
11:30AM -12.1240 -77.1290 200° South 211 243 3,300 660 Level FlightAware
11:30AM -12.1500 -77.1390 201° Southwest 238 274 3,700 960 Climbing FlightAware
11:31AM -12.1730 -77.1470 199° South 262 302 4,100 1,080 Climbing FlightAware
11:31AM -12.1880 -77.1510 195° South 276 318 4,300 960 Climbing FlightAware
11:31AM -12.1930 -77.1510 180° South 280 322 4,400 2,040 Climbing FlightAware
11:31AM -12.2200 -77.1410 160° South 288 331 5,200 2,400 Climbing FlightAware
11:31AM -12.2280 -77.1300 127° Southeast 285 328 5,600 2,280 Climbing FlightAware
11:32AM -12.2330 -77.1210 120° Southeast 283 326 5,900 1,860 Climbing FlightAware
11:32AM -12.2340 -77.1100 95° East 286 329 6,100 1,920 Climbing FlightAware
11:32AM -12.2170 -77.0720 65° Northeast 285 328 7,200 2,160 Climbing FlightAware
11:32AM -12.2110 -77.0680 33° Northeast 281 323 7,500 3,000 Climbing FlightAware
11:33AM -12.1990 -77.0630 22° Northeast 276 318 8,000 2,640 Climbing FlightAware
11:33AM -12.1890 -77.0610 11° North 274 315 8,300 1,800 Climbing FlightAware
11:33AM -12.1730 -77.0610 360° North 280 322 8,600 1,680 Climbing FlightAware
11:33AM -12.1470 -77.0630 356° North 286 329 9,200 2,160 Climbing FlightAware
11:34AM -12.0990 -77.0790 342° North 286 329 10,700 1,680 Climbing FlightAware
11:34AM -12.0610 -77.0980 334° Northwest 311 358 11,200 1,020 Climbing FlightAware
11:35AM -12.0260 -77.1110 340° North 334 384 11,700 1,260 Climbing FlightAware
11:35AM -11.9790 -77.0950 18° North 361 415 12,400 1,680 Climbing FlightAware
11:36AM -11.9300 -77.0620 33° Northeast 367 422 13,600 1,860 Climbing FlightAware
11:37AM -11.8760 -77.0270 32° Northeast 376 433 14,700 1,680 Climbing FlightAware
11:37AM -11.8270 -76.9940 33° Northeast 387 445 15,600 1,800 Climbing FlightAware
11:38AM -11.7750 -76.9580 34° Northeast 388 447 16,800 1,620 Climbing FlightAware
11:38AM -11.7210 -76.9190 35° Northeast 402 463 17,600 1,320 Climbing FlightAware
11:39AM -11.6700 -76.8820 35° Northeast 413 475 18,300 1,380 Climbing FlightAware
11:39AM -11.6140 -76.8420 35° Northeast 421 484 19,200 1,440 Climbing FlightAware
11:40AM -11.5530 -76.7990 35° Northeast 428 493 20,100 960 Climbing FlightAware
11:41AM -11.4810 -76.7490 34° Northeast 430 495 20,600 300 Climbing FlightAware
11:41AM -11.4290 -76.7130 34° Northeast 430 495 20,600  Level FlightAware
11:42AM -11.3770 -76.6770 34° Northeast 430 495 20,600  Level FlightAware
11:43AM -11.3250 -76.6420 33° Northeast 430 495 20,600  Level FlightAware
11:43AM -11.2570 -76.5950 34° Northeast 430 495 20,600  Level FlightAware
11:44AM -11.2090 -76.5620 34° Northeast 430 495 20,600  Level FlightAware
11:47AM -11.0144 -76.3501 47° Northeast  Level Estimated
11:48AM -10.9354 -76.2643 47° Northeast  Level Estimated
11:49AM -10.8564 -76.1785 47° Northeast  Level Estimated
11:50AM -10.7774 -76.0927 47° Northeast  Level Estimated
11:51AM -10.6984 -76.0070 47° Northeast  Level Estimated
11:52AM -10.6194 -75.9214 47° Northeast  Level Estimated
11:53AM -10.5403 -75.8358 47° Northeast  Level Estimated
11:54AM -10.4612 -75.7502 47° Northeast  Level Estimated
11:55AM -10.3821 -75.6647 47° Northeast  Level Estimated
11:56AM -10.3030 -75.5792 47° Northeast  Level Estimated
11:57AM -10.2238 -75.4938 47° Northeast  Level Estimated
11:58AM -10.1446 -75.4084 47° Northeast  Level Estimated
11:59AM -10.0654 -75.3230 47° Northeast  Level Estimated
12:00PM -9.9862 -75.2377 47° Northeast  Level Estimated
12:01PM -9.9070 -75.1525 47° Northeast  Level Estimated
12:02PM -9.8277 -75.0673 47° Northeast  Level Estimated
12:03PM -9.7484 -74.9821 47° Northeast  Level Estimated
12:04PM -9.6691 -74.8969 47° Northeast  Level Estimated
12:05PM -9.5898 -74.8118 47° Northeast  Level Estimated
12:06PM -9.5104 -74.7268 47° Northeast  Level Estimated
12:07PM -9.4311 -74.6417 47° Northeast  Level Estimated
12:08PM -9.3517 -74.5568 47° Northeast  Level Estimated
12:09PM -9.2723 -74.4718 47° Northeast  Level Estimated
12:10PM -9.1928 -74.3869 47° Northeast  Level Estimated
12:11PM -9.1134 -74.3020 47° Northeast  Level Estimated
12:12PM -9.0339 -74.2172 47° Northeast  Level Estimated
12:13PM -8.9544 -74.1324 47° Northeast  Level Estimated
12:14PM -8.8749 -74.0477 46° Northeast  Level Estimated
12:15PM -8.7954 -73.9630 46° Northeast  Level Estimated
12:16PM -8.7158 -73.8783 46° Northeast  Level Estimated
12:17PM -8.6363 -73.7936 46° Northeast  Level Estimated
12:18PM -8.5567 -73.7090 46° Northeast  Level Estimated
12:19PM -8.4771 -73.6244 46° Northeast  Level Estimated
12:20PM -8.3975 -73.5399 46° Northeast  Level Estimated
12:21PM -8.3178 -73.4554 46° Northeast  Level Estimated
12:22PM -8.2382 -73.3709 46° Northeast  Level Estimated
12:23PM -8.1585 -73.2865 46° Northeast  Level Estimated
12:24PM -8.0788 -73.2021 46° Northeast  Level Estimated
12:25PM -7.9991 -73.1177 46° Northeast  Level Estimated
12:26PM -7.9194 -73.0334 46° Northeast  Level Estimated
12:27PM -7.8396 -72.9491 46° Northeast  Level Estimated
12:28PM -7.7599 -72.8648 46° Northeast  Level Estimated
12:29PM -7.6801 -72.7805 46° Northeast  Level Estimated
12:30PM -7.6003 -72.6963 46° Northeast  Level Estimated
12:31PM -7.5205 -72.6122 46° Northeast  Level Estimated
12:32PM -7.4406 -72.5280 46° Northeast  Level Estimated
12:33PM -7.3608 -72.4439 46° Northeast  Level Estimated
12:34PM -7.2809 -72.3598 46° Northeast  Level Estimated
12:35PM -7.2011 -72.2757 46° Northeast  Level Estimated
12:36PM -7.1212 -72.1917 46° Northeast  Level Estimated
12:37PM -7.0413 -72.1077 46° Northeast  Level Estimated
12:38PM -6.9614 -72.0237 46° Northeast  Level Estimated
12:39PM -6.8814 -71.9398 46° Northeast  Level Estimated
12:40PM -6.8015 -71.8559 46° Northeast  Level Estimated
12:41PM -6.7215 -71.7720 46° Northeast  Level Estimated
12:42PM -6.6415 -71.6881 46° Northeast  Level Estimated
12:43PM -6.5616 -71.6043 46° Northeast  Level Estimated
12:44PM -6.4816 -71.5205 46° Northeast  Level Estimated
12:45PM -6.4015 -71.4368 46° Northeast  Level Estimated
12:46PM -6.3215 -71.3530 46° Northeast  Level Estimated
12:47PM -6.2414 -71.2693 46° Northeast  Level Estimated
12:48PM -6.1614 -71.1856 46° Northeast  Level Estimated
12:49PM -6.0813 -71.1019 46° Northeast  Level Estimated
12:50PM -6.0012 -71.0183 46° Northeast  Level Estimated
12:51PM -5.9211 -70.9346 46° Northeast  Level Estimated
12:52PM -5.8410 -70.8510 46° Northeast  Level Estimated
12:53PM -5.7609 -70.7675 46° Northeast  Level Estimated
12:54PM -5.6808 -70.6839 46° Northeast  Level Estimated
12:55PM -5.6006 -70.6004 46° Northeast  Level Estimated
12:56PM -5.5205 -70.5169 46° Northeast  Level Estimated
12:57PM -5.4403 -70.4334 46° Northeast  Level Estimated
12:58PM -5.3601 -70.3500 46° Northeast  Level Estimated
12:59PM -5.2799 -70.2665 46° Northeast  Level Estimated
01:00PM -5.1997 -70.1831 46° Northeast  Level Estimated
01:01PM -5.1195 -70.0997 46° Northeast  Level Estimated
01:02PM -5.0393 -70.0163 46° Northeast  Level Estimated
01:03PM -4.9591 -69.9330 46° Northeast  Level Estimated
01:04PM -4.8788 -69.8496 46° Northeast  Level Estimated
01:05PM -4.7985 -69.7663 46° Northeast  Level Estimated
01:06PM -4.7183 -69.6831 46° Northeast  Level Estimated
01:07PM -4.6380 -69.5998 46° Northeast  Level Estimated
01:08PM -4.5577 -69.5165 46° Northeast  Level Estimated
01:09PM -4.4774 -69.4333 46° Northeast  Level Estimated
01:10PM -4.3971 -69.3501 46° Northeast  Level Estimated
01:11PM -4.3168 -69.2669 46° Northeast  Level Estimated
01:12PM -4.2365 -69.1837 46° Northeast  Level Estimated
01:13PM -4.1561 -69.1005 46° Northeast  Level Estimated
01:14PM -4.0758 -69.0174 46° Northeast  Level Estimated
01:15PM -3.9954 -68.9342 46° Northeast  Level Estimated
01:16PM -3.9151 -68.8511 46° Northeast  Level Estimated
01:17PM -3.8347 -68.7680 46° Northeast  Level Estimated
01:18PM -3.7543 -68.6849 46° Northeast  Level Estimated
01:19PM -3.6740 -68.6019 46° Northeast  Level Estimated
01:20PM -3.5936 -68.5188 46° Northeast  Level Estimated
01:21PM -3.5132 -68.4358 46° Northeast  Level Estimated
01:22PM -3.4328 -68.3528 46° Northeast  Level Estimated
01:23PM -3.3524 -68.2697 46° Northeast  Level Estimated
01:24PM -3.2719 -68.1867 46° Northeast  Level Estimated
01:25PM -3.1915 -68.1038 46° Northeast  Level Estimated
01:26PM -3.1111 -68.0208 46° Northeast  Level Estimated
01:27PM -3.0306 -67.9378 46° Northeast  Level Estimated
01:28PM -2.9502 -67.8549 46° Northeast  Level Estimated
01:29PM -2.8697 -67.7719 46° Northeast  Level Estimated
01:30PM -2.7893 -67.6890 46° Northeast  Level Estimated
01:31PM -2.7088 -67.6061 46° Northeast  Level Estimated
01:32PM -2.6284 -67.5232 46° Northeast  Level Estimated
01:33PM -2.5479 -67.4403 46° Northeast  Level Estimated
01:34PM -2.4674 -67.3575 46° Northeast  Level Estimated
01:35PM -2.3869 -67.2746 46° Northeast  Level Estimated
01:36PM -2.3064 -67.1917 46° Northeast  Level Estimated
01:37PM -2.2259 -67.1089 46° Northeast  Level Estimated
01:38PM -2.1454 -67.0260 46° Northeast  Level Estimated
01:39PM -2.0649 -66.9432 46° Northeast  Level Estimated
01:40PM -1.9844 -66.8604 46° Northeast  Level Estimated
01:41PM -1.9039 -66.7776 46° Northeast  Level Estimated
01:42PM -1.8234 -66.6947 46° Northeast  Level Estimated
01:43PM -1.7429 -66.6120 46° Northeast  Level Estimated
01:44PM -1.6624 -66.5292 46° Northeast  Level Estimated
01:45PM -1.5818 -66.4464 46° Northeast  Level Estimated
01:46PM -1.5013 -66.3636 46° Northeast  Level Estimated
01:47PM -1.4208 -66.2808 46° Northeast  Level Estimated
01:48PM -1.3402 -66.1981 46° Northeast  Level Estimated
01:49PM -1.2597 -66.1153 46° Northeast  Level Estimated
01:50PM -1.1791 -66.0325 46° Northeast  Level Estimated
01:51PM -1.0986 -65.9498 46° Northeast  Level Estimated
01:52PM -1.0180 -65.8670 46° Northeast  Level Estimated
01:53PM -0.9375 -65.7843 46° Northeast  Level Estimated
01:54PM -0.8569 -65.7016 46° Northeast  Level Estimated
01:55PM -0.7764 -65.6188 46° Northeast  Level Estimated
01:56PM -0.6959 -65.5361 46° Northeast  Level Estimated
01:57PM -0.6153 -65.4533 46° Northeast  Level Estimated
01:58PM -0.5347 -65.3706 46° Northeast  Level Estimated
01:59PM -0.4542 -65.2879 46° Northeast  Level Estimated
02:00PM -0.3736 -65.2052 46° Northeast  Level Estimated
02:01PM -0.2930 -65.1225 46° Northeast  Level Estimated
02:02PM -0.2125 -65.0397 46° Northeast  Level Estimated
02:03PM -0.1319 -64.9570 46° Northeast  Level Estimated
02:04PM -0.0514 -64.8743 46° Northeast  Level Estimated
02:05PM 0.0292 -64.7916 46° Northeast  Level Estimated
02:06PM 0.1098 -64.7088 46° Northeast  Level Estimated
02:07PM 0.1903 -64.6261 46° Northeast  Level Estimated
02:08PM 0.2709 -64.5434 46° Northeast  Level Estimated
02:09PM 0.3514 -64.4607 46° Northeast  Level Estimated
02:10PM 0.4320 -64.3780 46° Northeast  Level Estimated
02:11PM 0.5125 -64.2952 46° Northeast  Level Estimated
02:12PM 0.5931 -64.2125 46° Northeast  Level Estimated
02:13PM 0.6737 -64.1298 46° Northeast  Level Estimated
02:14PM 0.7542 -64.0471 46° Northeast  Level Estimated
02:15PM 0.8348 -63.9643 46° Northeast  Level Estimated
02:16PM 0.9153 -63.8816 46° Northeast  Level Estimated
02:17PM 0.9959 -63.7988 46° Northeast  Level Estimated
02:18PM 1.0764 -63.7161 46° Northeast  Level Estimated
02:19PM 1.1570 -63.6333 46° Northeast  Level Estimated
02:20PM 1.2375 -63.5506 46° Northeast  Level Estimated
02:21PM 1.3181 -63.4678 46° Northeast  Level Estimated
02:22PM 1.3986 -63.3850 46° Northeast  Level Estimated
02:23PM 1.4791 -63.3023 46° Northeast  Level Estimated
02:24PM 1.5596 -63.2195 46° Northeast  Level Estimated
02:25PM 1.6402 -63.1367 46° Northeast  Level Estimated
02:26PM 1.7207 -63.0539 46° Northeast  Level Estimated
02:27PM 1.8012 -62.9711 46° Northeast  Level Estimated
02:28PM 1.8817 -62.8883 46° Northeast  Level Estimated
02:29PM 1.9622 -62.8055 46° Northeast  Level Estimated
02:30PM 2.0428 -62.7227 46° Northeast  Level Estimated
02:31PM 2.1233 -62.6399 46° Northeast  Level Estimated
02:32PM 2.2038 -62.5570 46° Northeast  Level Estimated
02:33PM 2.2843 -62.4742 46° Northeast  Level Estimated
02:34PM 2.3648 -62.3913 46° Northeast  Level Estimated
02:35PM 2.4453 -62.3084 46° Northeast  Level Estimated
02:36PM 2.5257 -62.2256 46° Northeast  Level Estimated
02:37PM 2.6062 -62.1427 46° Northeast  Level Estimated
02:38PM 2.6867 -62.0598 46° Northeast  Level Estimated
02:39PM 2.7671 -61.9768 46° Northeast  Level Estimated
02:40PM 2.8476 -61.8939 46° Northeast  Level Estimated
02:41PM 2.9281 -61.8110 46° Northeast  Level Estimated
02:42PM 3.0085 -61.7281 46° Northeast  Level Estimated
02:43PM 3.0889 -61.6451 46° Northeast  Level Estimated
02:44PM 3.1694 -61.5621 46° Northeast  Level Estimated
02:45PM 3.2498 -61.4792 46° Northeast  Level Estimated
02:46PM 3.3302 -61.3962 46° Northeast  Level Estimated
02:47PM 3.4106 -61.3132 46° Northeast  Level Estimated
02:48PM 3.4911 -61.2301 46° Northeast  Level Estimated
02:49PM 3.5714 -61.1471 46° Northeast  Level Estimated
02:50PM 3.6518 -61.0640 46° Northeast  Level Estimated
02:51PM 3.7322 -60.9810 46° Northeast  Level Estimated
02:52PM 3.8126 -60.8979 46° Northeast  Level Estimated
02:53PM 3.8930 -60.8148 46° Northeast  Level Estimated
02:54PM 3.9733 -60.7317 46° Northeast  Level Estimated
02:55PM 4.0537 -60.6486 46° Northeast  Level Estimated
02:56PM 4.1340 -60.5654 46° Northeast  Level Estimated
02:57PM 4.2144 -60.4823 46° Northeast  Level Estimated
02:58PM 4.2947 -60.3991 46° Northeast  Level Estimated
02:59PM 4.3750 -60.3159 46° Northeast  Level Estimated
03:00PM 4.4553 -60.2327 46° Northeast  Level Estimated
03:01PM 4.5356 -60.1494 46° Northeast  Level Estimated
03:02PM 4.6159 -60.0662 46° Northeast  Level Estimated
03:03PM 4.6962 -59.9829 46° Northeast  Level Estimated
03:04PM 4.7765 -59.8996 46° Northeast  Level Estimated
03:05PM 4.8567 -59.8163 46° Northeast  Level Estimated
03:06PM 4.9370 -59.7330 46° Northeast  Level Estimated
03:07PM 5.0172 -59.6497 46° Northeast  Level Estimated
03:08PM 5.0974 -59.5663 46° Northeast  Level Estimated
03:09PM 5.1776 -59.4829 46° Northeast  Level Estimated
03:10PM 5.2579 -59.3995 46° Northeast  Level Estimated
03:11PM 5.3381 -59.3161 46° Northeast  Level Estimated
03:12PM 5.4182 -59.2326 46° Northeast  Level Estimated
03:13PM 5.4984 -59.1491 46° Northeast  Level Estimated
03:14PM 5.5786 -59.0656 46° Northeast  Level Estimated
03:15PM 5.6587 -58.9821 46° Northeast  Level Estimated
03:16PM 5.7389 -58.8986 46° Northeast  Level Estimated
03:17PM 5.8190 -58.8150 46° Northeast  Level Estimated
03:18PM 5.8991 -58.7314 46° Northeast  Level Estimated
03:19PM 5.9792 -58.6478 46° Northeast  Level Estimated
03:20PM 6.0593 -58.5641 46° Northeast  Level Estimated
03:21PM 6.1394 -58.4805 46° Northeast  Level Estimated
03:22PM 6.2194 -58.3968 46° Northeast  Level Estimated
03:23PM 6.2995 -58.3131 46° Northeast  Level Estimated
03:24PM 6.3795 -58.2293 46° Northeast  Level Estimated
03:25PM 6.4595 -58.1456 46° Northeast  Level Estimated
03:26PM 6.5395 -58.0618 46° Northeast  Level Estimated
03:27PM 6.6195 -57.9780 46° Northeast  Level Estimated
03:28PM 6.6995 -57.8941 46° Northeast  Level Estimated
03:29PM 6.7795 -57.8102 46° Northeast  Level Estimated
03:30PM 6.8594 -57.7263 46° Northeast  Level Estimated
03:31PM 6.9394 -57.6424 46° Northeast  Level Estimated
03:32PM 7.0566 -57.5193 46° Northeast  Level Estimated
03:33PM 7.1737 -57.3961 46° Northeast  Level Estimated
03:34PM 7.2908 -57.2729 46° Northeast  Level Estimated
03:35PM 7.4079 -57.1496 46° Northeast  Level Estimated
03:36PM 7.5249 -57.0262 46° Northeast  Level Estimated
03:37PM 7.6419 -56.9028 46° Northeast  Level Estimated
03:38PM 7.7589 -56.7793 46° Northeast  Level Estimated
03:39PM 7.8759 -56.6557 46° Northeast  Level Estimated
03:40PM 7.9928 -56.5321 46° Northeast  Level Estimated
03:41PM 8.1096 -56.4084 46° Northeast  Level Estimated
03:42PM 8.2264 -56.2846 46° Northeast  Level Estimated
03:43PM 8.3432 -56.1607 46° Northeast  Level Estimated
03:44PM 8.4600 -56.0368 46° Northeast  Level Estimated
03:45PM 8.5767 -55.9128 46° Northeast  Level Estimated
03:46PM 8.6934 -55.7887 46° Northeast  Level Estimated
03:47PM 8.8100 -55.6645 46° Northeast  Level Estimated
03:48PM 8.9266 -55.5403 46° Northeast  Level Estimated
03:49PM 9.0431 -55.4160 46° Northeast  Level Estimated
03:50PM 9.1596 -55.2916 47° Northeast  Level Estimated
03:51PM 9.2761 -55.1671 47° Northeast  Level Estimated
03:52PM 9.3925 -55.0425 47° Northeast  Level Estimated
03:53PM 9.5089 -54.9179 47° Northeast  Level Estimated
03:54PM 9.6253 -54.7932 47° Northeast  Level Estimated
03:55PM 9.7416 -54.6684 47° Northeast  Level Estimated
03:56PM 9.8578 -54.5434 47° Northeast  Level Estimated
03:57PM 9.9740 -54.4185 47° Northeast  Level Estimated
03:58PM 10.0901 -54.2934 47° Northeast  Level Estimated
03:59PM 10.2063 -54.1682 47° Northeast  Level Estimated
04:00PM 10.3223 -54.0429 47° Northeast  Level Estimated
04:01PM 10.4383 -53.9176 47° Northeast  Level Estimated
04:02PM 10.5543 -53.7921 47° Northeast  Level Estimated
04:03PM 10.6702 -53.6666 47° Northeast  Level Estimated
04:04PM 10.7861 -53.5410 47° Northeast  Level Estimated
04:05PM 10.9019 -53.4152 47° Northeast  Level Estimated
04:06PM 11.0176 -53.2894 47° Northeast  Level Estimated
04:07PM 11.1333 -53.1635 47° Northeast  Level Estimated
04:08PM 11.2490 -53.0374 47° Northeast  Level Estimated
04:09PM 11.3646 -52.9113 47° Northeast  Level Estimated
04:10PM 11.4802 -52.7851 47° Northeast  Level Estimated
04:11PM 11.5956 -52.6587 47° Northeast  Level Estimated
04:12PM 11.7111 -52.5323 47° Northeast  Level Estimated
04:13PM 11.8265 -52.4058 47° Northeast  Level Estimated
04:14PM 11.9418 -52.2791 47° Northeast  Level Estimated
04:15PM 12.0571 -52.1523 47° Northeast  Level Estimated
04:16PM 12.1723 -52.0255 47° Northeast  Level Estimated
04:17PM 12.2874 -51.8985 47° Northeast  Level Estimated
04:18PM 12.4025 -51.7714 47° Northeast  Level Estimated
04:19PM 12.5176 -51.6442 47° Northeast  Level Estimated
04:20PM 12.6326 -51.5169 47° Northeast  Level Estimated
04:21PM 12.7475 -51.3894 47° Northeast  Level Estimated
04:22PM 12.8623 -51.2619 47° Northeast  Level Estimated
04:23PM 12.9771 -51.1342 47° Northeast  Level Estimated
04:24PM 13.0919 -51.0064 47° Northeast  Level Estimated
04:25PM 13.2065 -50.8785 47° Northeast  Level Estimated
04:26PM 13.3211 -50.7505 47° Northeast  Level Estimated
04:27PM 13.4357 -50.6224 47° Northeast  Level Estimated
04:28PM 13.5502 -50.4941 47° Northeast  Level Estimated
04:29PM 13.6646 -50.3657 47° Northeast  Level Estimated
04:30PM 13.7789 -50.2372 47° Northeast  Level Estimated
04:31PM 13.8932 -50.1086 48° Northeast  Level Estimated
04:32PM 14.0074 -49.9798 48° Northeast  Level Estimated
04:33PM 14.1215 -49.8509 48° Northeast  Level Estimated
04:34PM 14.2356 -49.7219 48° Northeast  Level Estimated
04:35PM 14.3496 -49.5927 48° Northeast  Level Estimated
04:36PM 14.4636 -49.4634 48° Northeast  Level Estimated
04:37PM 14.5774 -49.3340 48° Northeast  Level Estimated
04:38PM 14.6912 -49.2044 48° Northeast  Level Estimated
04:39PM 14.8050 -49.0747 48° Northeast  Level Estimated
04:40PM 14.9186 -48.9449 48° Northeast  Level Estimated
04:41PM 15.0322 -48.8150 48° Northeast  Level Estimated
04:42PM 15.1457 -48.6849 48° Northeast  Level Estimated
04:43PM 15.2591 -48.5546 48° Northeast  Level Estimated
04:44PM 15.3725 -48.4243 48° Northeast  Level Estimated
04:45PM 15.4858 -48.2937 48° Northeast  Level Estimated
04:46PM 15.5990 -48.1631 48° Northeast  Level Estimated
04:47PM 15.7121 -48.0322 48° Northeast  Level Estimated
04:48PM 15.8251 -47.9013 48° Northeast  Level Estimated
04:49PM 15.9381 -47.7702 48° Northeast  Level Estimated
04:50PM 16.0510 -47.6390 48° Northeast  Level Estimated
04:51PM 16.1638 -47.5075 48° Northeast  Level Estimated
04:52PM 16.2765 -47.3760 48° Northeast  Level Estimated
04:53PM 16.3892 -47.2443 48° Northeast  Level Estimated
04:54PM 16.5017 -47.1124 48° Northeast  Level Estimated
04:55PM 16.6142 -46.9804 48° Northeast  Level Estimated
04:56PM 16.7266 -46.8483 48° Northeast  Level Estimated
04:57PM 16.8389 -46.7160 48° Northeast  Level Estimated
04:58PM 16.9511 -46.5835 48° Northeast  Level Estimated
04:59PM 17.0633 -46.4509 48° Northeast  Level Estimated
05:00PM 17.1753 -46.3181 49° Northeast  Level Estimated
05:01PM 17.2873 -46.1851 49° Northeast  Level Estimated
05:02PM 17.3992 -46.0520 49° Northeast  Level Estimated
05:03PM 17.5110 -45.9187 49° Northeast  Level Estimated
05:04PM 17.6227 -45.7853 49° Northeast  Level Estimated
05:05PM 17.7343 -45.6517 49° Northeast  Level Estimated
05:06PM 17.8458 -45.5179 49° Northeast  Level Estimated
05:07PM 17.9572 -45.3840 49° Northeast  Level Estimated
05:08PM 18.0686 -45.2499 49° Northeast  Level Estimated
05:09PM 18.1798 -45.1156 49° Northeast  Level Estimated
05:10PM 18.2910 -44.9812 49° Northeast  Level Estimated
05:11PM 18.4020 -44.8465 49° Northeast  Level Estimated
05:12PM 18.5130 -44.7117 49° Northeast  Level Estimated
05:13PM 18.6239 -44.5768 49° Northeast  Level Estimated
05:14PM 18.7346 -44.4416 49° Northeast  Level Estimated
05:15PM 18.8453 -44.3063 49° Northeast  Level Estimated
05:16PM 18.9559 -44.1708 49° Northeast  Level Estimated
05:17PM 19.0664 -44.0351 49° Northeast  Level Estimated
05:18PM 19.1768 -43.8993 49° Northeast  Level Estimated
05:19PM 19.2870 -43.7632 49° Northeast  Level Estimated
05:20PM 19.3972 -43.6270 49° Northeast  Level Estimated
05:21PM 19.5073 -43.4906 49° Northeast  Level Estimated
05:22PM 19.6173 -43.3540 49° Northeast  Level Estimated
05:23PM 19.7271 -43.2172 50° Northeast  Level Estimated
05:24PM 19.8369 -43.0802 50° Northeast  Level Estimated
05:25PM 19.9466 -42.9431 50° Northeast  Level Estimated
05:26PM 20.0561 -42.8057 50° Northeast  Level Estimated
05:27PM 20.1656 -42.6682 50° Northeast  Level Estimated
05:28PM 20.2749 -42.5304 50° Northeast  Level Estimated
05:29PM 20.3842 -42.3925 50° Northeast  Level Estimated
05:30PM 20.4933 -42.2543 50° Northeast  Level Estimated
05:31PM 20.6023 -42.1160 50° Northeast  Level Estimated
05:32PM 20.7112 -41.9775 50° Northeast  Level Estimated
05:33PM 20.8200 -41.8388 50° Northeast  Level Estimated
05:34PM 20.9287 -41.6999 50° Northeast  Level Estimated
05:35PM 21.0373 -41.5607 50° Northeast  Level Estimated
05:36PM 21.1458 -41.4214 50° Northeast  Level Estimated
05:37PM 21.2541 -41.2819 50° Northeast  Level Estimated
05:38PM 21.3623 -41.1422 50° Northeast  Level Estimated
05:39PM 21.4705 -41.0022 50° Northeast  Level Estimated
05:40PM 21.5785 -40.8621 50° Northeast  Level Estimated
05:41PM 21.6863 -40.7217 50° Northeast  Level Estimated
05:42PM 21.7941 -40.5811 50° Northeast  Level Estimated
05:43PM 21.9017 -40.4403 50° Northeast  Level Estimated
05:44PM 22.0093 -40.2994 51° Northeast  Level Estimated
05:45PM 22.1167 -40.1581 51° Northeast  Level Estimated
05:46PM 22.2239 -40.0167 51° Northeast  Level Estimated
05:47PM 22.3311 -39.8751 51° Northeast  Level Estimated
05:48PM 22.4381 -39.7332 51° Northeast  Level Estimated
05:49PM 22.5450 -39.5911 51° Northeast  Level Estimated
05:50PM 22.6518 -39.4488 51° Northeast  Level Estimated
05:51PM 22.7585 -39.3063 51° Northeast  Level Estimated
05:52PM 22.8650 -39.1636 51° Northeast  Level Estimated
05:53PM 22.9715 -39.0206 51° Northeast  Level Estimated
05:54PM 23.0777 -38.8774 51° Northeast  Level Estimated
05:55PM 23.1839 -38.7340 51° Northeast  Level Estimated
05:56PM 23.2899 -38.5904 51° Northeast  Level Estimated
05:57PM 23.3958 -38.4465 51° Northeast  Level Estimated
05:58PM 23.5016 -38.3024 51° Northeast  Level Estimated
05:59PM 23.6072 -38.1581 51° Northeast  Level Estimated
06:00PM 23.7127 -38.0135 51° Northeast  Level Estimated
06:01PM 23.8180 -37.8687 51° Northeast  Level Estimated
06:02PM 23.9232 -37.7237 52° Northeast  Level Estimated
06:03PM 24.0283 -37.5784 52° Northeast  Level Estimated
06:04PM 24.1333 -37.4329 52° Northeast  Level Estimated
06:05PM 24.2381 -37.2872 52° Northeast  Level Estimated
06:06PM 24.3428 -37.1412 52° Northeast  Level Estimated
06:07PM 24.4473 -36.9949 52° Northeast  Level Estimated
06:08PM 24.5517 -36.8485 52° Northeast  Level Estimated
06:09PM 24.6559 -36.7017 52° Northeast  Level Estimated
06:10PM 24.7600 -36.5548 52° Northeast  Level Estimated
06:11PM 24.8640 -36.4076 52° Northeast  Level Estimated
06:12PM 24.9678 -36.2601 52° Northeast  Level Estimated
06:13PM 25.0715 -36.1124 52° Northeast  Level Estimated
06:14PM 25.1750 -35.9645 52° Northeast  Level Estimated
06:15PM 25.2784 -35.8163 52° Northeast  Level Estimated
06:16PM 25.3816 -35.6678 52° Northeast  Level Estimated
06:17PM 25.4847 -35.5191 52° Northeast  Level Estimated
06:18PM 25.5876 -35.3701 53° Northeast  Level Estimated
06:19PM 25.6904 -35.2209 53° Northeast  Level Estimated
06:20PM 25.7930 -35.0714 53° Northeast  Level Estimated
06:21PM 25.8955 -34.9217 53° Northeast  Level Estimated
06:22PM 25.9978 -34.7717 53° Northeast  Level Estimated
06:23PM 26.1000 -34.6214 53° Northeast  Level Estimated
06:24PM 26.2020 -34.4709 53° Northeast  Level Estimated
06:25PM 26.3039 -34.3201 53° Northeast  Level Estimated
06:26PM 26.4055 -34.1691 53° Northeast  Level Estimated
06:27PM 26.5071 -34.0177 53° Northeast  Level Estimated
06:28PM 26.6085 -33.8661 53° Northeast  Level Estimated
06:29PM 26.7097 -33.7143 53° Northeast  Level Estimated
06:30PM 26.8107 -33.5622 53° Northeast  Level Estimated
06:31PM 26.9116 -33.4098 53° Northeast  Level Estimated
06:32PM 27.0123 -33.2571 53° Northeast  Level Estimated
06:33PM 27.1129 -33.1042 54° Northeast  Level Estimated
06:34PM 27.2133 -32.9510 54° Northeast  Level Estimated
06:35PM 27.3135 -32.7975 54° Northeast  Level Estimated
06:36PM 27.4136 -32.6437 54° Northeast  Level Estimated
06:37PM 27.5135 -32.4896 54° Northeast  Level Estimated
06:38PM 27.6132 -32.3353 54° Northeast  Level Estimated
06:39PM 27.7127 -32.1807 54° Northeast  Level Estimated
06:40PM 27.8121 -32.0258 54° Northeast  Level Estimated
06:41PM 27.9113 -31.8706 54° Northeast  Level Estimated
06:42PM 28.0103 -31.7152 54° Northeast  Level Estimated
06:43PM 28.1092 -31.5594 54° Northeast  Level Estimated
06:44PM 28.2079 -31.4034 54° Northeast  Level Estimated
06:45PM 28.3064 -31.2471 54° Northeast  Level Estimated
06:46PM 28.4047 -31.0905 54° Northeast  Level Estimated
06:47PM 28.5028 -30.9336 55° Northeast  Level Estimated
06:48PM 28.6008 -30.7764 55° Northeast  Level Estimated
06:49PM 28.6986 -30.6189 55° Northeast  Level Estimated
06:50PM 28.7962 -30.4611 55° Northeast  Level Estimated
06:51PM 28.8936 -30.3030 55° Northeast  Level Estimated
06:52PM 28.9908 -30.1446 55° Northeast  Level Estimated
06:53PM 29.0879 -29.9860 55° Northeast  Level Estimated
06:54PM 29.1847 -29.8270 55° Northeast  Level Estimated
06:55PM 29.2814 -29.6677 55° Northeast  Level Estimated
06:56PM 29.3779 -29.5082 55° Northeast  Level Estimated
06:57PM 29.4742 -29.3483 55° Northeast  Level Estimated
06:58PM 29.5703 -29.1881 55° Northeast  Level Estimated
06:59PM 29.6662 -29.0276 55° Northeast  Level Estimated
07:00PM 29.7619 -28.8668 56° Northeast  Level Estimated
07:01PM 29.8574 -28.7057 56° Northeast  Level Estimated
07:02PM 29.9527 -28.5443 56° Northeast  Level Estimated
07:03PM 30.0479 -28.3826 56° Northeast  Level Estimated
07:04PM 30.1428 -28.2206 56° Northeast  Level Estimated
07:05PM 30.2375 -28.0583 56° Northeast  Level Estimated
07:06PM 30.3321 -27.8956 56° Northeast  Level Estimated
07:07PM 30.4264 -27.7327 56° Northeast  Level Estimated
07:08PM 30.5205 -27.5694 56° Northeast  Level Estimated
07:09PM 30.6144 -27.4058 56° Northeast  Level Estimated
07:10PM 30.7081 -27.2419 56° Northeast  Level Estimated
07:11PM 30.8016 -27.0777 56° Northeast  Level Estimated
07:12PM 30.8949 -26.9131 57° Northeast  Level Estimated
07:13PM 30.9880 -26.7482 57° Northeast  Level Estimated
07:14PM 31.0809 -26.5830 57° Northeast  Level Estimated
07:15PM 31.1736 -26.4175 57° Northeast  Level Estimated
07:16PM 31.2660 -26.2517 57° Northeast  Level Estimated
07:17PM 31.3583 -26.0855 57° Northeast  Level Estimated
07:18PM 31.4503 -25.9191 57° Northeast  Level Estimated
07:19PM 31.5421 -25.7522 57° Northeast  Level Estimated
07:20PM 31.6337 -25.5851 57° Northeast  Level Estimated
07:21PM 31.7251 -25.4176 57° Northeast  Level Estimated
07:22PM 31.8162 -25.2498 57° Northeast  Level Estimated
07:23PM 31.9072 -25.0817 57° Northeast  Level Estimated
07:24PM 31.9979 -24.9132 58° Northeast  Level Estimated
07:25PM 32.0884 -24.7444 58° Northeast  Level Estimated
07:26PM 32.1787 -24.5753 58° Northeast  Level Estimated
07:27PM 32.2687 -24.4058 58° Northeast  Level Estimated
07:28PM 32.3585 -24.2360 58° Northeast  Level Estimated
07:29PM 32.4481 -24.0659 58° Northeast  Level Estimated
07:30PM 32.5375 -23.8954 58° Northeast  Level Estimated
07:31PM 32.6266 -23.7246 58° Northeast  Level Estimated
07:32PM 32.7155 -23.5534 58° Northeast  Level Estimated
07:33PM 32.8042 -23.3819 58° Northeast  Level Estimated
07:34PM 32.8926 -23.2101 58° Northeast  Level Estimated
07:35PM 32.9808 -23.0379 59° Northeast  Level Estimated
07:36PM 33.0688 -22.8654 59° Northeast  Level Estimated
07:37PM 33.1565 -22.6925 59° Northeast  Level Estimated
07:38PM 33.2440 -22.5193 59° Northeast  Level Estimated
07:39PM 33.3312 -22.3457 59° Northeast  Level Estimated
07:40PM 33.4182 -22.1718 59° Northeast  Level Estimated
07:41PM 33.5050 -21.9975 59° Northeast  Level Estimated
07:42PM 33.5915 -21.8229 59° Northeast  Level Estimated
07:43PM 33.6777 -21.6479 59° Northeast  Level Estimated
07:44PM 33.7638 -21.4726 59° Northeast  Level Estimated
07:45PM 33.8495 -21.2970 60° Northeast  Level Estimated
07:46PM 33.9351 -21.1210 60° Northeast  Level Estimated
07:47PM 34.0203 -20.9446 60° Northeast  Level Estimated
07:48PM 34.1054 -20.7679 60° Northeast  Level Estimated
07:49PM 34.1901 -20.5908 60° Northeast  Level Estimated
07:50PM 34.2746 -20.4133 60° Northeast  Level Estimated
07:51PM 34.3589 -20.2355 60° Northeast  Level Estimated
07:52PM 34.4429 -20.0574 60° Northeast  Level Estimated
07:53PM 34.5266 -19.8789 60° Northeast  Level Estimated
07:54PM 34.6101 -19.7000 60° Northeast  Level Estimated
07:55PM 34.6933 -19.5208 61° Northeast  Level Estimated
07:56PM 34.7762 -19.3412 61° Northeast  Level Estimated
07:57PM 34.8589 -19.1612 61° Northeast  Level Estimated
07:58PM 34.9413 -18.9809 61° Northeast  Level Estimated
07:59PM 35.0235 -18.8003 61° Northeast  Level Estimated
08:00PM 35.1054 -18.6192 61° Northeast  Level Estimated
08:01PM 35.1870 -18.4378 61° Northeast  Level Estimated
08:02PM 35.2684 -18.2561 61° Northeast  Level Estimated
08:03PM 35.3494 -18.0739 61° Northeast  Level Estimated
08:04PM 35.4302 -17.8915 61° Northeast  Level Estimated
08:05PM 35.5107 -17.7086 62° Northeast  Level Estimated
08:06PM 35.5910 -17.5254 62° Northeast  Level Estimated
08:07PM 35.6710 -17.3418 62° Northeast  Level Estimated
08:08PM 35.7507 -17.1578 62° Northeast  Level Estimated
08:09PM 35.8301 -16.9735 62° Northeast  Level Estimated
08:10PM 35.9092 -16.7888 62° Northeast  Level Estimated
08:11PM 35.9880 -16.6037 62° Northeast  Level Estimated
08:12PM 36.0666 -16.4183 62° Northeast  Level Estimated
08:13PM 36.1449 -16.2325 62° Northeast  Level Estimated
08:14PM 36.2229 -16.0463 63° Northeast  Level Estimated
08:15PM 36.3006 -15.8598 63° Northeast  Level Estimated
08:16PM 36.3780 -15.6729 63° Northeast  Level Estimated
08:17PM 36.4551 -15.4856 63° Northeast  Level Estimated
08:18PM 36.5319 -15.2979 63° Northeast  Level Estimated
08:19PM 36.6084 -15.1099 63° Northeast  Level Estimated
08:20PM 36.6847 -14.9215 63° Northeast  Level Estimated
08:21PM 36.7606 -14.7327 63° Northeast  Level Estimated
08:22PM 36.8362 -14.5435 63° Northeast  Level Estimated
08:23PM 36.9116 -14.3540 64° Northeast  Level Estimated
08:24PM 36.9866 -14.1641 64° Northeast  Level Estimated
08:25PM 37.0613 -13.9738 64° Northeast  Level Estimated
08:26PM 37.1357 -13.7832 64° Northeast  Level Estimated
08:27PM 37.2099 -13.5922 64° Northeast  Level Estimated
08:28PM 37.2837 -13.4008 64° Northeast  Level Estimated
08:29PM 37.3572 -13.2090 64° Northeast  Level Estimated
08:30PM 37.4304 -13.0169 64° Northeast  Level Estimated
08:31PM 37.5033 -12.8243 64° Northeast  Level Estimated
08:32PM 37.5758 -12.6314 65° Northeast  Level Estimated
08:33PM 37.6481 -12.4382 65° Northeast  Level Estimated
08:34PM 37.7200 -12.2445 65° Northeast  Level Estimated
08:35PM 37.7916 -12.0505 65° Northeast  Level Estimated
08:36PM 37.8629 -11.8561 65° Northeast  Level Estimated
08:37PM 37.9339 -11.6613 65° Northeast  Level Estimated
08:38PM 38.0046 -11.4662 65° Northeast  Level Estimated
08:39PM 38.0749 -11.2706 65° Northeast  Level Estimated
08:40PM 38.1449 -11.0747 66° East  Level Estimated
08:41PM 38.2146 -10.8784 66° East  Level Estimated
08:42PM 38.2840 -10.6818 66° East  Level Estimated
08:43PM 38.3530 -10.4847 66° East  Level Estimated
08:44PM 38.4217 -10.2873 66° East  Level Estimated
08:45PM 38.4901 -10.0896 66° East  Level Estimated
08:46PM 38.5581 -9.8914 66° East  Level Estimated
08:47PM 38.6258 -9.6929 66° East  Level Estimated
08:48PM 38.6932 -9.4940 66° East  Level Estimated
08:49PM 38.7602 -9.2947 67° East  Level Estimated
08:50PM 38.8269 -9.0950 67° East  Level Estimated
08:51PM 38.8932 -8.8950 67° East  Level Estimated
08:52PM 38.9593 -8.6946 67° East  Level Estimated
08:53PM 39.0249 -8.4938 67° East  Level Estimated
08:54PM 39.0902 -8.2927 67° East  Level Estimated
08:55PM 39.1552 -8.0912 67° East  Level Estimated
08:56PM 39.2198 -7.8893 67° East  Level Estimated
08:57PM 39.2841 -7.6870 68° East  Level Estimated
08:58PM 39.3480 -7.4844 68° East  Level Estimated
08:59PM 39.4116 -7.2814 68° East  Level Estimated
09:00PM 39.4748 -7.0780 68° East  Level Estimated
09:01PM 39.5377 -6.8743 68° East  Level Estimated
09:02PM 39.6002 -6.6702 68° East  Level Estimated
09:03PM 39.6623 -6.4657 68° East  Level Estimated
09:04PM 39.7241 -6.2609 69° East  Level Estimated
09:05PM 39.7855 -6.0557 69° East  Level Estimated
09:06PM 39.8466 -5.8501 69° East  Level Estimated
09:07PM 39.9073 -5.6442 69° East  Level Estimated
09:08PM 39.9677 -5.4379 69° East  Level Estimated
09:09PM 40.0276 -5.2312 69° East  Level Estimated
09:10PM 40.0872 -5.0242 69° East  Level Estimated
09:11PM 40.1465 -4.8168 69° East  Level Estimated
09:12PM 40.2053 -4.6090 70° East  Level Estimated
09:13PM 40.2638 -4.4009 70° East  Level Estimated
09:14PM 40.3219 -4.1925 70° East  Level Estimated
09:15PM 40.3797 -3.9836 70° East  Level Estimated
09:16PM 40.4371 -3.7744 70° East  Level Estimated
09:17PM 40.4936 -3.5668 70° East  Level Estimated
09:18PM 40.4936 -3.5668 217° Southwest  Level Estimated
09:19PM 40.4936 -3.5668 217° Southwest  Level Estimated
09:20PM 40.4936 -3.5668 217° Southwest  Level Estimated
09:21PM 40.4936 -3.5668 217° Southwest  Level Estimated
09:22PM 40.4936 -3.5668 217° Southwest  Level Estimated
09:23PM 40.4936 -3.5668 217° Southwest  Level Estimated
09:24PM 40.4936 -3.5668 217° Southwest  Level Estimated
09:25PM 40.4936 -3.5668 217° Southwest  Level Estimated
09:26PM 40.4936 -3.5668 217° Southwest  Level Estimated
09:27PM 40.4936 -3.5668 217° Southwest  Level Estimated
09:28PM 40.4936 -3.5668 217° Southwest  Level Estimated
09:29PM 40.4936 -3.5668 217° Southwest  Level Estimated
09:30PM 40.4936 -3.5668 217° Southwest  Level Estimated
09:31PM 40.4936 -3.5668 217° Southwest  Level Estimated
09:32PM 40.4936 -3.5668 217° Southwest  Level Estimated
09:33PM 40.4936 -3.5668 217° Southwest  Level Estimated
09:34PM 40.4936 -3.5668 217° Southwest  Level Estimated
09:35PM 40.4936 -3.5668 217° Southwest  Level Estimated
09:36PM 40.4936 -3.5668 217° Southwest  Level Estimated
09:37PM 40.4936 -3.5668 217° Southwest  Level Estimated
09:38PM 40.4936 -3.5668 217° Southwest  Level Estimated
09:39PM 40.4936 -3.5668 217° Southwest  Level Estimated
09:40PM 40.4936 -3.5668 217° Southwest  Level Estimated
09:41PM 40.4936 -3.5668 217° Southwest  Level Estimated
09:42PM 40.4936 -3.5668 217° Southwest  Level Estimated
09:43PM 40.4936 -3.5668 217° Southwest  Level Estimated
09:44PM 40.4936 -3.5668 217° Southwest  Level Estimated
09:45PM 40.4936 -3.5668 217° Southwest  Level Estimated
09:46PM 40.4936 -3.5668 217° Southwest  Level Estimated
09:47PM 40.4936 -3.5668 217° Southwest  Level Estimated
09:47PM 38.2050 -10.8370 217° Southwest 470 541 40,000  Level FlightAware
09:48PM 38.2410 -10.7500 62° Northeast 470 541 40,000  Level FlightAware
09:48PM 38.2800 -10.6550 62° Northeast 471 542 40,000  Level FlightAware
09:49PM 38.3100 -10.5800 63° Northeast 470 541 40,000  Level FlightAware
09:49PM 38.3470 -10.4910 62° Northeast 470 541 40,000  Level FlightAware
09:50PM 38.3810 -10.4080 62° Northeast 470 541 40,000  Level FlightAware
09:51PM 38.4200 -10.3090 63° Northeast 470 541 40,000  Level FlightAware
09:51PM 38.4500 -10.2350 63° Northeast 470 541 40,000  Level FlightAware
09:52PM 38.4860 -10.1460 63° Northeast 470 541 40,000  Level FlightAware
09:52PM 38.5200 -10.0610 63° Northeast 470 541 40,000  Level FlightAware
09:53PM 38.5550 -9.9730 63° Northeast 470 541 40,000  Level FlightAware
09:54PM 38.5910 -9.8880 62° Northeast 470 541 40,000  Level FlightAware
09:54PM 38.6270 -9.8020 62° Northeast 469 540 40,000  Level FlightAware
09:55PM 38.6660 -9.7070 62° Northeast 469 540 40,000  Level FlightAware
09:55PM 38.6960 -9.6320 63° Northeast 468 539 40,000  Level FlightAware
09:56PM 38.7320 -9.5450 62° Northeast 469 540 40,000  Level FlightAware
09:56PM 38.7670 -9.4600 62° Northeast 470 541 40,000  Level FlightAware
09:57PM 38.8070 -9.3600 63° Northeast 470 541 40,000  Level FlightAware
09:58PM 38.8370 -9.2880 62° Northeast 470 541 40,000  Level FlightAware
09:58PM 38.8730 -9.1990 63° Northeast 471 542 40,000  Level FlightAware
09:59PM 38.9100 -9.1040 63° Northeast 471 542 40,000  Level FlightAware
09:59PM 38.9370 -9.0290 65° Northeast 471 542 40,000  Level FlightAware
10:00PM 38.9680 -8.9420 65° Northeast 472 543 40,000  Level FlightAware
10:01PM 39.0030 -8.8460 65° Northeast 471 542 40,000  Level FlightAware
10:01PM 39.0350 -8.7580 65° Northeast 471 542 40,000  Level FlightAware
10:02PM 39.0680 -8.6690 64° Northeast 470 541 40,000  Level FlightAware
10:02PM 39.0990 -8.5830 65° Northeast 470 541 40,000  Level FlightAware
10:03PM 39.1360 -8.4790 65° Northeast 471 542 40,000  Level FlightAware
10:03PM 39.1640 -8.4030 65° Northeast 471 542 40,000  Level FlightAware
10:04PM 39.2030 -8.3030 63° Northeast 471 542 40,000  Level FlightAware
10:05PM 39.2440 -8.2040 62° Northeast 471 542 40,000  Level FlightAware
10:05PM 39.2780 -8.1200 62° Northeast 471 542 40,000  Level FlightAware
10:06PM 39.3150 -8.0290 62° Northeast 471 542 40,000  Level FlightAware
10:07PM 39.3490 -7.9250 67° East 472 543 40,000  Level FlightAware
10:07PM 39.3780 -7.8380 67° East 473 544 40,000  Level FlightAware
10:08PM 39.4070 -7.7470 68° East 474 545 40,000  Level FlightAware
10:08PM 39.4350 -7.6610 67° East 475 547 40,000  Level FlightAware
10:09PM 39.4660 -7.5620 68° East 476 548 40,000  Level FlightAware
10:10PM 39.4960 -7.4700 67° East 476 548 40,000  Level FlightAware
10:10PM 39.5250 -7.3770 68° East 478 550 40,000  Level FlightAware
10:11PM 39.5530 -7.2850 68° East 479 551 40,000  Level FlightAware
10:11PM 39.5790 -7.1920 70° East 479 551 40,000  Level FlightAware
10:12PM 39.6060 -7.0970 70° East 478 550 40,000  Level FlightAware
10:12PM 39.6320 -7.0030 70° East 478 550 40,000  Level FlightAware
10:13PM 39.6570 -6.9170 69° East 479 551 40,000  Level FlightAware
10:14PM 39.6890 -6.8040 70° East 480 552 40,000  Level FlightAware
10:14PM 39.7160 -6.7080 70° East 479 551 40,000  Level FlightAware
10:15PM 39.7410 -6.6190 70° East 479 551 40,000  Level FlightAware
10:15PM 39.7670 -6.5230 71° East 479 551 40,000  Level FlightAware
10:16PM 39.7910 -6.4240 72° East 481 554 40,000  Level FlightAware
10:16PM 39.7930 -6.3910 85° East 481 554 40,000  Level FlightAware
10:17PM 39.7940 -6.2880 89° East 482 555 40,000  Level FlightAware
10:17PM 39.7960 -6.1920 88° East 483 556 40,000 -240 Level FlightAware
10:18PM 39.7980 -6.1010 88° East 483 556 39,800 -1,920 Descending FlightAware
10:19PM 39.7990 -5.9780 89° East 499 574 37,700 -2,580 Descending FlightAware
10:19PM 39.8010 -5.8810 88° East 489 563 36,700 -2,280 Descending FlightAware
10:20PM 39.8020 -5.7810 89° East 490 564 35,200 -2,760 Descending FlightAware
10:20PM 39.8030 -5.6750 89° East 493 567 33,500 -2,760 Descending FlightAware
10:21PM 39.8040 -5.5720 89° East 487 560 32,000 -2,520 Descending FlightAware
10:21PM 39.8050 -5.4710 89° East 481 554 30,600 -2,280 Descending FlightAware
10:22PM 39.8060 -5.3720 89° East 470 541 29,400 -2,100 Descending FlightAware
10:23PM 39.8070 -5.2730 89° East 460 529 28,200 -1,980 Descending FlightAware
10:23PM 39.8080 -5.1790 89° East 452 520 27,100 -1,980 Descending FlightAware
10:24PM 39.8090 -5.0840 89° East 443 510 25,900 -2,100 Descending FlightAware
10:24PM 39.8090 -4.9910 90° East 437 503 24,700 -1,980 Descending FlightAware
10:25PM 39.8100 -4.9000 89° East 436 502 23,600 -1,980 Descending FlightAware
10:26PM 39.8280 -4.8130 75° East 430 495 22,400 -2,340 Descending FlightAware
10:26PM 39.8540 -4.7290 68° East 429 494 20,900 -2,760 Descending FlightAware
10:27PM 39.8790 -4.6470 68° East 436 502 19,200 -2,760 Descending FlightAware
10:27PM 39.8980 -4.5580 74° East 436 502 17,700 -2,340 Descending FlightAware
10:28PM 39.9210 -4.4700 71° East 426 490 16,500 -1,980 Descending FlightAware
10:28PM 39.9430 -4.3870 71° East 415 478 15,400 -1,980 Descending FlightAware
10:29PM 39.9650 -4.3060 70° East 408 470 14,200 -1,980 Descending FlightAware
10:30PM 39.9860 -4.2240 71° East 400 460 13,100 -1,740 Descending FlightAware
10:30PM 40.0070 -4.1460 71° East 386 444 12,200 -1,920 Descending FlightAware
10:31PM 40.0310 -4.0540 71° East 383 441 10,700 -2,040 Descending FlightAware
10:31PM 40.0480 -3.9930 70° East 382 440 9,800 -1,200 Descending FlightAware
10:32PM 40.0630 -3.9340 72° East 362 417 9,600 -720 Descending FlightAware
10:32PM 40.0740 -3.8930 71° East 351 404 9,300 -720 Descending FlightAware
10:33PM 40.0870 -3.8440 71° East 329 379 9,100 -420 Descending FlightAware
10:33PM 40.0960 -3.8060 73° East 321 369 9,000 -480 Descending FlightAware
10:33PM 40.1050 -3.7720 71° East 309 356 8,800 -780 Descending FlightAware
10:34PM 40.1150 -3.7360 70° East 305 351 8,500 -1,080 Descending FlightAware
10:34PM 40.1270 -3.6920 70° East 304 350 8,000 -1,200 Descending FlightAware
10:34PM 40.1310 -3.6750 73° East 300 345 7,800 -1,080 Descending FlightAware
10:34PM 40.1390 -3.6410 73° East 297 342 7,500 -1,260 Descending FlightAware
10:35PM 40.1510 -3.5980 70° East 297 342 6,900 -1,200 Descending FlightAware
10:35PM 40.1600 -3.5630 71° East 296 341 6,600 -900 Descending FlightAware
10:36PM 40.1680 -3.5310 72° East 287 330 6,300 -1,080 Descending FlightAware
10:36PM 40.1760 -3.4980 72° East 289 333 5,900 -1,200 Descending FlightAware
10:36PM 40.1870 -3.4570 71° East 288 331 5,400 -1,080 Descending FlightAware
10:37PM 40.1950 -3.4270 71° East 284 327 5,100 -600 Descending FlightAware
10:37PM 40.2090 -3.3940 61° Northeast 268 308 5,000 -480 Descending FlightAware
10:37PM 40.2130 -3.3880 49° Northeast 273 314 4,900 -600 Descending FlightAware
10:37PM 40.2190 -3.3850 21° North 266 306 4,900 -420 Level FlightAware
10:37PM 40.2320 -3.3820 10° North 271 312 4,800 -420 Descending FlightAware
10:37PM 40.2380 -3.3830 353° North 262 302 4,800 -420 Level FlightAware
10:38PM 40.2490 -3.3900 334° Northwest 259 298 4,700 -300 Descending FlightAware
10:38PM 40.2600 -3.3980 331° Northwest 253 291 4,700 -660 Level FlightAware
10:38PM 40.2890 -3.4200 330° Northwest 239 275 4,300 -780 Descending FlightAware
10:39PM 40.3100 -3.4340 333° Northwest 230 265 4,000 -780 Descending FlightAware
10:39PM 40.3270 -3.4440 336° Northwest 216 249 3,800 -300 Descending FlightAware
10:39PM 40.3470 -3.4540 339° North 197 227 3,800  Level FlightAware
10:40PM 40.3640 -3.4640 336° Northwest 190 219 3,800 -300 Level FlightAware
10:40PM 40.3820 -3.4750 335° Northwest 175 201 3,600 -600 Descending FlightAware
10:40PM 40.3950 -3.4820 338° Northwest 178 205 3,400 -660 Descending FlightAware
10:40PM 40.4030 -3.4860 339° North 172 198 3,300 -480 Descending FlightAware
10:41PM 40.4130 -3.4890 347° North 164 189 3,200 -720 Descending FlightAware
10:41PM 40.4280 -3.4940 346° North 138 159 2,900 -780 Descending FlightAware
10:41PM 40.4380 -3.5010 332° Northwest 139 160 2,700 -840 Descending FlightAware
10:42PM 40.4520 -3.5150 323° Northwest 130 150 2,300 -780 Descending FlightAware
10:42PM 40.4580 -3.5210 323° Northwest 142 163 2,200 -780 Descending FlightAware
10:42PM 40.4730 -3.5360 323° Northwest 141 162 1,800 -960 Descending FlightAware
10:43PM 40.4840 -3.5470 323° Northwest 98 113 -4,500 Descending FlightAware